sensor_id;sensor_type;location;lat;lon;timestamp;temperature;humidity
43143;DHT22;28750;59.842;17.584;2023-04-24T00:01:03;4.40;99.90
43143;DHT22;28750;59.842;17.584;2023-04-24T00:03:33;4.50;99.90
43143;DHT22;28750;59.842;17.584;2023-04-24T00:06:00;4.30;99.90
43143;DHT22;28750;59.842;17.584;2023-04-24T00:08:28;4.50;99.90
43143;DHT22;28750;59.842;17.584;2023-04-24T00:10:55;4.30;99.90
43143;DHT22;28750;59.842;17.584;2023-04-24T00:13:22;4.10;99.90
43143;DHT22;28750;59.842;17.584;2023-04-24T00:15:49;4.00;99.90
43143;DHT22;28750;59.842;17.584;2023-04-24T00:18:16;4.10;99.90
43143;DHT22;28750;59.842;17.584;2023-04-24T00:20:43;4.10;99.90
43143;DHT22;28750;59.842;17.584;2023-04-24T00:23:10;4.00;99.90
43143;DHT22;28750;59.842;17.584;2023-04-24T00:25:37;4.10;99.90
43143;DHT22;28750;59.842;17.584;2023-04-24T00:28:04;4.20;99.90
43143;DHT22;28750;59.842;17.584;2023-04-24T00:30:31;4.20;99.90
43143;DHT22;28750;59.842;17.584;2023-04-24T00:32:58;4.20;99.90
43143;DHT22;28750;59.842;17.584;2023-04-24T00:35:25;4.20;99.90
43143;DHT22;28750;59.842;17.584;2023-04-24T00:37:52;4.30;99.90
43143;DHT22;28750;59.842;17.584;2023-04-24T00:40:19;4.00;99.90
43143;DHT22;28750;59.842;17.584;2023-04-24T00:42:46;4.10;99.90
43143;DHT22;28750;59.842;17.584;2023-04-24T00:45:13;4.20;99.90
43143;DHT22;28750;59.842;17.584;2023-04-24T00:47:42;4.10;99.90
43143;DHT22;28750;59.842;17.584;2023-04-24T00:50:09;4.20;99.90
43143;DHT22;28750;59.842;17.584;2023-04-24T00:52:36;4.30;99.90
43143;DHT22;28750;59.842;17.584;2023-04-24T00:55:06;4.40;99.90
43143;DHT22;28750;59.842;17.584;2023-04-24T00:57:33;4.40;99.90
43143;DHT22;28750;59.842;17.584;2023-04-24T01:00:01;4.30;99.90
43143;DHT22;28750;59.842;17.584;2023-04-24T01:02:28;4.30;99.90
43143;DHT22;28750;59.842;17.584;2023-04-24T01:04:56;4.50;99.90
43143;DHT22;28750;59.842;17.584;2023-04-24T01:07:23;4.30;99.90
43143;DHT22;28750;59.842;17.584;2023-04-24T01:09:51;4.40;99.90
43143;DHT22;28750;59.842;17.584;2023-04-24T01:12:19;4.10;99.90
43143;DHT22;28750;59.842;17.584;2023-04-24T01:14:47;4.00;99.90
43143;DHT22;28750;59.842;17.584;2023-04-24T01:17:13;4.00;99.90
43143;DHT22;28750;59.842;17.584;2023-04-24T01:19:40;3.90;99.90
43143;DHT22;28750;59.842;17.584;2023-04-24T01:22:12;3.90;99.90
43143;DHT22;28750;59.842;17.584;2023-04-24T01:24:39;3.80;99.90
43143;DHT22;28750;59.842;17.584;2023-04-24T01:27:08;3.90;99.90
43143;DHT22;28750;59.842;17.584;2023-04-24T01:29:36;3.80;99.90
43143;DHT22;28750;59.842;17.584;2023-04-24T01:32:04;3.80;99.90
43143;DHT22;28750;59.842;17.584;2023-04-24T01:34:31;3.80;99.90
43143;DHT22;28750;59.842;17.584;2023-04-24T01:36:58;3.90;99.90
43143;DHT22;28750;59.842;17.584;2023-04-24T01:39:26;3.90;99.90
43143;DHT22;28750;59.842;17.584;2023-04-24T01:41:55;3.90;99.90
43143;DHT22;28750;59.842;17.584;2023-04-24T01:44:23;3.90;99.90
43143;DHT22;28750;59.842;17.584;2023-04-24T01:46:50;3.90;99.90
43143;DHT22;28750;59.842;17.584;2023-04-24T01:49:19;4.00;99.90
43143;DHT22;28750;59.842;17.584;2023-04-24T01:51:46;3.80;99.90
43143;DHT22;28750;59.842;17.584;2023-04-24T01:54:13;3.70;99.90
43143;DHT22;28750;59.842;17.584;2023-04-24T01:56:41;3.70;99.90
43143;DHT22;28750;59.842;17.584;2023-04-24T01:59:12;3.90;99.90
43143;DHT22;28750;59.842;17.584;2023-04-24T02:01:39;4.00;99.90
43143;DHT22;28750;59.842;17.584;2023-04-24T02:04:07;3.90;99.90
43143;DHT22;28750;59.842;17.584;2023-04-24T02:06:34;3.80;99.90
43143;DHT22;28750;59.842;17.584;2023-04-24T02:09:02;3.80;99.90
43143;DHT22;28750;59.842;17.584;2023-04-24T02:11:29;3.70;99.90
43143;DHT22;28750;59.842;17.584;2023-04-24T02:13:56;3.60;99.90
43143;DHT22;28750;59.842;17.584;2023-04-24T02:16:23;3.60;99.90
43143;DHT22;28750;59.842;17.584;2023-04-24T02:18:50;3.50;99.90
43143;DHT22;28750;59.842;17.584;2023-04-24T02:21:17;3.60;99.90
43143;DHT22;28750;59.842;17.584;2023-04-24T02:23:44;3.40;99.90
43143;DHT22;28750;59.842;17.584;2023-04-24T02:26:11;3.40;99.90
43143;DHT22;28750;59.842;17.584;2023-04-24T02:28:38;3.50;99.90
43143;DHT22;28750;59.842;17.584;2023-04-24T02:31:05;3.50;99.90
43143;DHT22;28750;59.842;17.584;2023-04-24T02:33:32;3.50;99.90
43143;DHT22;28750;59.842;17.584;2023-04-24T02:35:59;3.50;99.90
43143;DHT22;28750;59.842;17.584;2023-04-24T02:38:26;3.40;99.90
43143;DHT22;28750;59.842;17.584;2023-04-24T02:40:53;3.40;99.90
43143;DHT22;28750;59.842;17.584;2023-04-24T02:43:20;3.50;99.90
43143;DHT22;28750;59.842;17.584;2023-04-24T02:45:47;3.40;99.90
43143;DHT22;28750;59.842;17.584;2023-04-24T02:48:15;3.30;99.90
43143;DHT22;28750;59.842;17.584;2023-04-24T02:50:42;3.50;99.90
43143;DHT22;28750;59.842;17.584;2023-04-24T02:53:09;3.40;99.90
43143;DHT22;28750;59.842;17.584;2023-04-24T02:55:36;3.40;99.90
43143;DHT22;28750;59.842;17.584;2023-04-24T02:58:03;3.30;99.90
43143;DHT22;28750;59.842;17.584;2023-04-24T03:00:31;3.30;99.90
43143;DHT22;28750;59.842;17.584;2023-04-24T03:02:58;3.20;99.90
43143;DHT22;28750;59.842;17.584;2023-04-24T03:05:25;3.30;99.90
43143;DHT22;28750;59.842;17.584;2023-04-24T03:07:52;3.30;99.90
43143;DHT22;28750;59.842;17.584;2023-04-24T03:10:19;3.30;99.90
43143;DHT22;28750;59.842;17.584;2023-04-24T03:12:48;3.20;99.90
43143;DHT22;28750;59.842;17.584;2023-04-24T03:15:15;3.20;99.90
43143;DHT22;28750;59.842;17.584;2023-04-24T03:17:42;3.10;99.90
43143;DHT22;28750;59.842;17.584;2023-04-24T03:20:09;3.10;99.90
43143;DHT22;28750;59.842;17.584;2023-04-24T03:22:36;3.20;99.90
43143;DHT22;28750;59.842;17.584;2023-04-24T03:25:04;3.20;99.90
43143;DHT22;28750;59.842;17.584;2023-04-24T03:27:31;3.20;99.90
43143;DHT22;28750;59.842;17.584;2023-04-24T03:29:58;3.20;99.90
43143;DHT22;28750;59.842;17.584;2023-04-24T03:32:26;3.20;99.90
43143;DHT22;28750;59.842;17.584;2023-04-24T03:34:53;3.20;99.90
43143;DHT22;28750;59.842;17.584;2023-04-24T03:37:20;3.10;99.90
43143;DHT22;28750;59.842;17.584;2023-04-24T03:39:47;3.10;99.90
43143;DHT22;28750;59.842;17.584;2023-04-24T03:42:14;3.20;99.90
43143;DHT22;28750;59.842;17.584;2023-04-24T03:44:41;3.20;99.90
43143;DHT22;28750;59.842;17.584;2023-04-24T03:47:08;3.10;99.90
43143;DHT22;28750;59.842;17.584;2023-04-24T03:49:35;3.10;99.90
43143;DHT22;28750;59.842;17.584;2023-04-24T03:52:02;3.10;99.90
43143;DHT22;28750;59.842;17.584;2023-04-24T03:54:29;3.10;99.90
43143;DHT22;28750;59.842;17.584;2023-04-24T03:56:56;3.00;99.90
43143;DHT22;28750;59.842;17.584;2023-04-24T03:59:23;3.10;99.90
43143;DHT22;28750;59.842;17.584;2023-04-24T04:01:50;3.10;99.90
43143;DHT22;28750;59.842;17.584;2023-04-24T04:04:17;3.10;99.90
43143;DHT22;28750;59.842;17.584;2023-04-24T04:06:43;3.10;99.90
43143;DHT22;28750;59.842;17.584;2023-04-24T04:09:12;3.20;99.90
43143;DHT22;28750;59.842;17.584;2023-04-24T04:11:39;3.20;99.90
43143;DHT22;28750;59.842;17.584;2023-04-24T04:14:06;3.20;99.90
43143;DHT22;28750;59.842;17.584;2023-04-24T04:16:32;3.10;99.90
43143;DHT22;28750;59.842;17.584;2023-04-24T04:19:02;3.10;99.90
43143;DHT22;28750;59.842;17.584;2023-04-24T04:21:30;3.00;99.90
43143;DHT22;28750;59.842;17.584;2023-04-24T04:23:57;3.10;99.90
43143;DHT22;28750;59.842;17.584;2023-04-24T04:26:24;3.10;99.90
43143;DHT22;28750;59.842;17.584;2023-04-24T04:28:54;3.00;99.90
43143;DHT22;28750;59.842;17.584;2023-04-24T04:31:21;3.10;99.90
43143;DHT22;28750;59.842;17.584;2023-04-24T04:33:48;3.10;99.90
43143;DHT22;28750;59.842;17.584;2023-04-24T04:36:16;3.20;99.90
43143;DHT22;28750;59.842;17.584;2023-04-24T04:38:43;3.10;99.90
43143;DHT22;28750;59.842;17.584;2023-04-24T04:41:10;3.10;99.90
43143;DHT22;28750;59.842;17.584;2023-04-24T04:43:37;3.20;99.90
43143;DHT22;28750;59.842;17.584;2023-04-24T04:46:06;3.20;99.90
43143;DHT22;28750;59.842;17.584;2023-04-24T04:48:34;3.20;99.90
43143;DHT22;28750;59.842;17.584;2023-04-24T04:51:01;3.20;99.90
43143;DHT22;28750;59.842;17.584;2023-04-24T04:53:27;3.30;99.90
43143;DHT22;28750;59.842;17.584;2023-04-24T04:55:54;3.20;99.90
43143;DHT22;28750;59.842;17.584;2023-04-24T04:58:21;3.20;99.90
43143;DHT22;28750;59.842;17.584;2023-04-24T05:00:48;3.30;99.90
43143;DHT22;28750;59.842;17.584;2023-04-24T05:03:15;3.20;99.90
43143;DHT22;28750;59.842;17.584;2023-04-24T05:05:42;3.20;99.90
43143;DHT22;28750;59.842;17.584;2023-04-24T05:08:09;3.20;99.90
43143;DHT22;28750;59.842;17.584;2023-04-24T05:10:36;3.20;99.90
43143;DHT22;28750;59.842;17.584;2023-04-24T05:13:03;3.20;99.90
43143;DHT22;28750;59.842;17.584;2023-04-24T05:15:30;3.20;99.90
43143;DHT22;28750;59.842;17.584;2023-04-24T05:17:57;3.20;99.90
43143;DHT22;28750;59.842;17.584;2023-04-24T05:20:24;3.30;99.90
43143;DHT22;28750;59.842;17.584;2023-04-24T05:22:51;3.30;99.90
43143;DHT22;28750;59.842;17.584;2023-04-24T05:25:18;3.30;99.90
43143;DHT22;28750;59.842;17.584;2023-04-24T05:27:45;3.40;99.90
43143;DHT22;28750;59.842;17.584;2023-04-24T05:30:12;3.40;99.90
43143;DHT22;28750;59.842;17.584;2023-04-24T05:32:39;3.30;99.90
43143;DHT22;28750;59.842;17.584;2023-04-24T05:35:06;3.40;99.90
43143;DHT22;28750;59.842;17.584;2023-04-24T05:37:33;3.40;99.90
43143;DHT22;28750;59.842;17.584;2023-04-24T05:40:00;3.40;99.90
43143;DHT22;28750;59.842;17.584;2023-04-24T05:42:27;3.40;99.90
43143;DHT22;28750;59.842;17.584;2023-04-24T05:44:54;3.30;99.90
43143;DHT22;28750;59.842;17.584;2023-04-24T05:47:21;3.40;99.90
43143;DHT22;28750;59.842;17.584;2023-04-24T05:49:48;3.50;99.90
43143;DHT22;28750;59.842;17.584;2023-04-24T05:52:15;3.40;99.90
43143;DHT22;28750;59.842;17.584;2023-04-24T05:54:42;3.50;99.90
43143;DHT22;28750;59.842;17.584;2023-04-24T05:57:09;3.50;99.90
43143;DHT22;28750;59.842;17.584;2023-04-24T05:59:37;3.40;99.90
43143;DHT22;28750;59.842;17.584;2023-04-24T06:02:04;3.70;99.90
43143;DHT22;28750;59.842;17.584;2023-04-24T06:04:32;3.70;99.90
43143;DHT22;28750;59.842;17.584;2023-04-24T06:06:59;3.80;99.90
43143;DHT22;28750;59.842;17.584;2023-04-24T06:09:26;3.80;99.90
43143;DHT22;28750;59.842;17.584;2023-04-24T06:11:53;3.80;99.90
43143;DHT22;28750;59.842;17.584;2023-04-24T06:14:22;3.90;99.90
43143;DHT22;28750;59.842;17.584;2023-04-24T06:16:49;4.00;99.90
43143;DHT22;28750;59.842;17.584;2023-04-24T06:19:16;4.10;99.90
43143;DHT22;28750;59.842;17.584;2023-04-24T06:21:43;4.00;99.90
43143;DHT22;28750;59.842;17.584;2023-04-24T06:24:10;3.80;99.90
43143;DHT22;28750;59.842;17.584;2023-04-24T06:26:37;3.70;99.90
43143;DHT22;28750;59.842;17.584;2023-04-24T06:29:04;3.70;99.90
43143;DHT22;28750;59.842;17.584;2023-04-24T06:31:32;3.70;99.90
43143;DHT22;28750;59.842;17.584;2023-04-24T06:34:05;3.60;99.90
43143;DHT22;28750;59.842;17.584;2023-04-24T06:36:32;3.80;99.90
43143;DHT22;28750;59.842;17.584;2023-04-24T06:39:00;3.70;99.90
43143;DHT22;28750;59.842;17.584;2023-04-24T06:41:28;3.80;99.90
43143;DHT22;28750;59.842;17.584;2023-04-24T06:43:55;3.90;99.90
43143;DHT22;28750;59.842;17.584;2023-04-24T06:46:22;3.90;99.90
43143;DHT22;28750;59.842;17.584;2023-04-24T06:48:52;4.10;99.90
43143;DHT22;28750;59.842;17.584;2023-04-24T06:51:22;4.20;99.90
43143;DHT22;28750;59.842;17.584;2023-04-24T06:53:51;4.00;99.90
43143;DHT22;28750;59.842;17.584;2023-04-24T06:56:18;4.00;99.90
43143;DHT22;28750;59.842;17.584;2023-04-24T06:58:44;4.10;99.90
43143;DHT22;28750;59.842;17.584;2023-04-24T07:01:11;4.20;99.90
43143;DHT22;28750;59.842;17.584;2023-04-24T07:03:38;4.10;99.90
43143;DHT22;28750;59.842;17.584;2023-04-24T07:06:05;4.00;99.90
43143;DHT22;28750;59.842;17.584;2023-04-24T07:08:32;4.10;99.90
43143;DHT22;28750;59.842;17.584;2023-04-24T07:11:00;4.10;99.90
43143;DHT22;28750;59.842;17.584;2023-04-24T07:13:27;4.10;99.90
43143;DHT22;28750;59.842;17.584;2023-04-24T07:15:54;4.20;99.90
43143;DHT22;28750;59.842;17.584;2023-04-24T07:18:22;4.20;99.90
43143;DHT22;28750;59.842;17.584;2023-04-24T07:20:49;4.40;99.90
43143;DHT22;28750;59.842;17.584;2023-04-24T07:23:17;4.30;99.90
43143;DHT22;28750;59.842;17.584;2023-04-24T07:25:44;4.10;99.90
43143;DHT22;28750;59.842;17.584;2023-04-24T07:28:12;4.30;99.90
43143;DHT22;28750;59.842;17.584;2023-04-24T07:30:39;4.20;99.90
43143;DHT22;28750;59.842;17.584;2023-04-24T07:33:06;4.20;99.90
43143;DHT22;28750;59.842;17.584;2023-04-24T07:35:33;4.30;99.90
43143;DHT22;28750;59.842;17.584;2023-04-24T07:38:00;4.30;99.90
43143;DHT22;28750;59.842;17.584;2023-04-24T07:40:27;4.40;99.90
43143;DHT22;28750;59.842;17.584;2023-04-24T07:42:54;4.40;99.90
43143;DHT22;28750;59.842;17.584;2023-04-24T07:45:21;4.40;99.90
43143;DHT22;28750;59.842;17.584;2023-04-24T07:47:50;4.20;99.90
43143;DHT22;28750;59.842;17.584;2023-04-24T07:50:17;4.30;99.90
43143;DHT22;28750;59.842;17.584;2023-04-24T07:52:44;4.30;99.90
43143;DHT22;28750;59.842;17.584;2023-04-24T07:55:11;4.40;99.90
43143;DHT22;28750;59.842;17.584;2023-04-24T07:57:38;4.60;99.90
43143;DHT22;28750;59.842;17.584;2023-04-24T08:00:05;4.50;99.90
43143;DHT22;28750;59.842;17.584;2023-04-24T08:02:33;4.50;99.90
43143;DHT22;28750;59.842;17.584;2023-04-24T08:05:00;4.50;99.90
43143;DHT22;28750;59.842;17.584;2023-04-24T08:07:28;4.50;99.90
43143;DHT22;28750;59.842;17.584;2023-04-24T08:09:55;4.40;99.90
43143;DHT22;28750;59.842;17.584;2023-04-24T08:12:22;4.50;99.90
43143;DHT22;28750;59.842;17.584;2023-04-24T08:14:49;4.50;99.90
43143;DHT22;28750;59.842;17.584;2023-04-24T08:17:17;4.50;99.90
43143;DHT22;28750;59.842;17.584;2023-04-24T08:19:44;4.60;99.90
43143;DHT22;28750;59.842;17.584;2023-04-24T08:22:16;4.60;99.90
43143;DHT22;28750;59.842;17.584;2023-04-24T08:24:43;4.50;99.90
43143;DHT22;28750;59.842;17.584;2023-04-24T08:27:10;4.60;99.90
43143;DHT22;28750;59.842;17.584;2023-04-24T08:29:37;4.70;99.90
43143;DHT22;28750;59.842;17.584;2023-04-24T08:32:04;4.60;99.90
43143;DHT22;28750;59.842;17.584;2023-04-24T08:34:31;4.70;99.90
43143;DHT22;28750;59.842;17.584;2023-04-24T08:36:58;4.60;99.90
43143;DHT22;28750;59.842;17.584;2023-04-24T08:39:25;4.60;99.90
43143;DHT22;28750;59.842;17.584;2023-04-24T08:41:53;4.80;99.90
43143;DHT22;28750;59.842;17.584;2023-04-24T08:44:20;4.60;99.90
43143;DHT22;28750;59.842;17.584;2023-04-24T08:46:48;4.70;99.90
43143;DHT22;28750;59.842;17.584;2023-04-24T08:49:18;4.80;99.90
43143;DHT22;28750;59.842;17.584;2023-04-24T08:51:45;4.80;99.90
43143;DHT22;28750;59.842;17.584;2023-04-24T08:54:13;4.70;99.90
43143;DHT22;28750;59.842;17.584;2023-04-24T08:56:41;4.70;99.90
43143;DHT22;28750;59.842;17.584;2023-04-24T08:59:10;4.60;99.90
43143;DHT22;28750;59.842;17.584;2023-04-24T09:01:38;4.80;99.90
43143;DHT22;28750;59.842;17.584;2023-04-24T09:04:08;4.70;99.90
43143;DHT22;28750;59.842;17.584;2023-04-24T09:06:36;4.60;99.90
43143;DHT22;28750;59.842;17.584;2023-04-24T09:09:03;4.80;99.90
43143;DHT22;28750;59.842;17.584;2023-04-24T09:11:31;5.20;99.90
43143;DHT22;28750;59.842;17.584;2023-04-24T09:13:59;4.90;99.90
43143;DHT22;28750;59.842;17.584;2023-04-24T09:16:27;5.10;99.90
43143;DHT22;28750;59.842;17.584;2023-04-24T09:18:55;5.20;99.90
43143;DHT22;28750;59.842;17.584;2023-04-24T09:21:22;5.00;99.90
43143;DHT22;28750;59.842;17.584;2023-04-24T09:24:05;4.90;99.90
43143;DHT22;28750;59.842;17.584;2023-04-24T09:26:35;4.90;99.90
43143;DHT22;28750;59.842;17.584;2023-04-24T09:29:03;4.80;99.90
43143;DHT22;28750;59.842;17.584;2023-04-24T09:31:30;4.90;99.90
43143;DHT22;28750;59.842;17.584;2023-04-24T09:34:01;4.90;99.90
43143;DHT22;28750;59.842;17.584;2023-04-24T09:36:29;5.00;99.90
43143;DHT22;28750;59.842;17.584;2023-04-24T09:39:00;5.20;99.90
43143;DHT22;28750;59.842;17.584;2023-04-24T09:41:28;5.10;99.90
43143;DHT22;28750;59.842;17.584;2023-04-24T09:43:56;5.30;99.90
43143;DHT22;28750;59.842;17.584;2023-04-24T09:46:30;5.50;99.90
43143;DHT22;28750;59.842;17.584;2023-04-24T09:49:22;5.20;99.90
43143;DHT22;28750;59.842;17.584;2023-04-24T09:51:50;5.20;99.90
43143;DHT22;28750;59.842;17.584;2023-04-24T09:54:19;5.20;99.90
43143;DHT22;28750;59.842;17.584;2023-04-24T09:56:48;5.40;99.90
43143;DHT22;28750;59.842;17.584;2023-04-24T09:59:18;5.30;99.90
43143;DHT22;28750;59.842;17.584;2023-04-24T10:01:45;5.40;99.90
43143;DHT22;28750;59.842;17.584;2023-04-24T10:04:18;5.40;99.90
43143;DHT22;28750;59.842;17.584;2023-04-24T10:06:46;5.40;99.90
43143;DHT22;28750;59.842;17.584;2023-04-24T10:09:14;5.30;99.90
43143;DHT22;28750;59.842;17.584;2023-04-24T10:11:43;5.30;99.90
43143;DHT22;28750;59.842;17.584;2023-04-24T10:14:18;5.30;99.90
43143;DHT22;28750;59.842;17.584;2023-04-24T10:16:48;5.30;99.90
43143;DHT22;28750;59.842;17.584;2023-04-24T10:19:16;5.20;99.90
43143;DHT22;28750;59.842;17.584;2023-04-24T10:21:44;5.10;99.90
43143;DHT22;28750;59.842;17.584;2023-04-24T10:24:17;5.20;99.90
43143;DHT22;28750;59.842;17.584;2023-04-24T10:26:46;5.20;99.90
43143;DHT22;28750;59.842;17.584;2023-04-24T10:29:16;5.60;99.90
43143;DHT22;28750;59.842;17.584;2023-04-24T10:31:44;5.80;99.90
43143;DHT22;28750;59.842;17.584;2023-04-24T10:34:12;5.30;94.20
43143;DHT22;28750;59.842;17.584;2023-04-24T10:36:42;5.50;99.90
43143;DHT22;28750;59.842;17.584;2023-04-24T10:39:12;5.50;99.90
43143;DHT22;28750;59.842;17.584;2023-04-24T10:41:40;5.40;99.90
43143;DHT22;28750;59.842;17.584;2023-04-24T10:44:15;5.40;90.10
43143;DHT22;28750;59.842;17.584;2023-04-24T10:46:46;5.40;99.90
43143;DHT22;28750;59.842;17.584;2023-04-24T10:49:14;5.50;99.90
43143;DHT22;28750;59.842;17.584;2023-04-24T10:51:51;5.50;99.90
43143;DHT22;28750;59.842;17.584;2023-04-24T10:54:27;5.40;99.90
43143;DHT22;28750;59.842;17.584;2023-04-24T11:02:37;5.80;99.90
43143;DHT22;28750;59.842;17.584;2023-04-24T11:05:05;5.70;1.00
43143;DHT22;28750;59.842;17.584;2023-04-24T11:08:09;5.60;1.00
43143;DHT22;28750;59.842;17.584;2023-04-24T11:10:43;5.40;99.90
43143;DHT22;28750;59.842;17.584;2023-04-24T11:13:14;5.50;99.90
43143;DHT22;28750;59.842;17.584;2023-04-24T11:15:42;5.50;1.00
43143;DHT22;28750;59.842;17.584;2023-04-24T11:18:15;5.50;99.90
43143;DHT22;28750;59.842;17.584;2023-04-24T11:20:43;5.20;1.00
43143;DHT22;28750;59.842;17.584;2023-04-24T11:23:12;5.30;1.00
43143;DHT22;28750;59.842;17.584;2023-04-24T11:25:39;5.20;99.90
43143;DHT22;28750;59.842;17.584;2023-04-24T11:28:07;5.00;99.90
43143;DHT22;28750;59.842;17.584;2023-04-24T11:30:41;4.90;1.00
43143;DHT22;28750;59.842;17.584;2023-04-24T11:33:08;5.20;1.00
43143;DHT22;28750;59.842;17.584;2023-04-24T11:35:39;5.30;99.90
43143;DHT22;28750;59.842;17.584;2023-04-24T11:38:06;5.20;1.00
43143;DHT22;28750;59.842;17.584;2023-04-24T11:40:34;5.00;99.90
43143;DHT22;28750;59.842;17.584;2023-04-24T11:43:01;5.10;99.90
43143;DHT22;28750;59.842;17.584;2023-04-24T11:45:30;5.10;99.90
43143;DHT22;28750;59.842;17.584;2023-04-24T11:47:57;5.20;99.90
43143;DHT22;28750;59.842;17.584;2023-04-24T11:50:25;5.30;99.90
43143;DHT22;28750;59.842;17.584;2023-04-24T11:52:54;5.20;99.90
43143;DHT22;28750;59.842;17.584;2023-04-24T11:57:50;5.40;1.00
43143;DHT22;28750;59.842;17.584;2023-04-24T12:00:20;5.50;1.00
43143;DHT22;28750;59.842;17.584;2023-04-24T12:02:48;5.40;1.00
43143;DHT22;28750;59.842;17.584;2023-04-24T12:05:27;5.40;99.90
43143;DHT22;28750;59.842;17.584;2023-04-24T12:07:56;5.30;99.90
43143;DHT22;28750;59.842;17.584;2023-04-24T12:10:28;5.40;99.90
43143;DHT22;28750;59.842;17.584;2023-04-24T12:12:56;5.30;99.90
43143;DHT22;28750;59.842;17.584;2023-04-24T12:15:24;5.30;99.90
43143;DHT22;28750;59.842;17.584;2023-04-24T12:17:52;5.30;99.90
43143;DHT22;28750;59.842;17.584;2023-04-24T12:20:31;5.30;99.90
43143;DHT22;28750;59.842;17.584;2023-04-24T12:23:00;5.30;99.90
43143;DHT22;28750;59.842;17.584;2023-04-24T12:25:31;5.30;99.90
43143;DHT22;28750;59.842;17.584;2023-04-24T12:30:41;5.40;99.90
43143;DHT22;28750;59.842;17.584;2023-04-24T12:33:10;5.40;99.90
43143;DHT22;28750;59.842;17.584;2023-04-24T12:35:37;5.40;1.00
43143;DHT22;28750;59.842;17.584;2023-04-24T12:40:34;5.50;99.90
43143;DHT22;28750;59.842;17.584;2023-04-24T12:43:02;5.50;99.90
43143;DHT22;28750;59.842;17.584;2023-04-24T12:45:38;5.20;1.00
43143;DHT22;28750;59.842;17.584;2023-04-24T12:48:05;5.20;99.90
43143;DHT22;28750;59.842;17.584;2023-04-24T12:50:32;5.10;99.90
43143;DHT22;28750;59.842;17.584;2023-04-24T12:52:59;5.10;1.00
43143;DHT22;28750;59.842;17.584;2023-04-24T12:55:26;5.10;37.80
43143;DHT22;28750;59.842;17.584;2023-04-24T12:57:53;5.30;2.80
43143;DHT22;28750;59.842;17.584;2023-04-24T13:00:21;5.20;1.00
43143;DHT22;28750;59.842;17.584;2023-04-24T13:02:48;5.30;1.00
43143;DHT22;28750;59.842;17.584;2023-04-24T13:05:15;5.30;99.90
43143;DHT22;28750;59.842;17.584;2023-04-24T13:07:42;5.20;99.90
43143;DHT22;28750;59.842;17.584;2023-04-24T13:10:10;5.60;99.90
43143;DHT22;28750;59.842;17.584;2023-04-24T13:12:39;5.40;99.90
43143;DHT22;28750;59.842;17.584;2023-04-24T13:15:06;5.70;99.90
43143;DHT22;28750;59.842;17.584;2023-04-24T13:17:33;5.50;99.90
43143;DHT22;28750;59.842;17.584;2023-04-24T13:20:00;5.30;1.00
43143;DHT22;28750;59.842;17.584;2023-04-24T13:22:28;5.30;70.60
43143;DHT22;28750;59.842;17.584;2023-04-24T13:24:55;5.40;99.90
43143;DHT22;28750;59.842;17.584;2023-04-24T13:27:22;5.50;99.90
43143;DHT22;28750;59.842;17.584;2023-04-24T13:29:49;5.40;1.00
43143;DHT22;28750;59.842;17.584;2023-04-24T13:32:17;5.30;1.00
43143;DHT22;28750;59.842;17.584;2023-04-24T13:34:44;5.30;33.60
43143;DHT22;28750;59.842;17.584;2023-04-24T13:37:11;5.20;99.90
43143;DHT22;28750;59.842;17.584;2023-04-24T13:39:38;5.10;99.90
43143;DHT22;28750;59.842;17.584;2023-04-24T13:42:04;5.00;99.90
43143;DHT22;28750;59.842;17.584;2023-04-24T13:44:31;5.10;1.00
43143;DHT22;28750;59.842;17.584;2023-04-24T13:49:28;5.10;1.00
43143;DHT22;28750;59.842;17.584;2023-04-24T13:52:13;5.10;99.90
43143;DHT22;28750;59.842;17.584;2023-04-24T13:54:50;5.10;99.90
43143;DHT22;28750;59.842;17.584;2023-04-24T13:57:17;5.10;99.90
43143;DHT22;28750;59.842;17.584;2023-04-24T13:59:44;5.30;99.90
43143;DHT22;28750;59.842;17.584;2023-04-24T14:02:11;5.40;99.90
43143;DHT22;28750;59.842;17.584;2023-04-24T14:04:38;5.20;1.00
43143;DHT22;28750;59.842;17.584;2023-04-24T14:07:05;5.10;33.00
43143;DHT22;28750;59.842;17.584;2023-04-24T14:09:33;5.00;78.90
43143;DHT22;28750;59.842;17.584;2023-04-24T14:12:00;5.10;99.90
43143;DHT22;28750;59.842;17.584;2023-04-24T14:14:29;5.00;99.90
43143;DHT22;28750;59.842;17.584;2023-04-24T14:20:18;5.00;99.90
43143;DHT22;28750;59.842;17.584;2023-04-24T14:22:45;4.90;1.00
43143;DHT22;28750;59.842;17.584;2023-04-24T14:31:40;4.90;99.90
43143;DHT22;28750;59.842;17.584;2023-04-24T14:34:07;4.90;1.00
43143;DHT22;28750;59.842;17.584;2023-04-24T14:37:05;4.70;99.90
43143;DHT22;28750;59.842;17.584;2023-04-24T14:42:53;4.70;99.90
43143;DHT22;28750;59.842;17.584;2023-04-24T14:45:22;4.80;99.90
43143;DHT22;28750;59.842;17.584;2023-04-24T14:47:49;4.80;1.00
43143;DHT22;28750;59.842;17.584;2023-04-24T14:50:16;4.70;1.00
43143;DHT22;28750;59.842;17.584;2023-04-24T14:52:43;4.80;1.00
43143;DHT22;28750;59.842;17.584;2023-04-24T14:55:10;4.90;14.90
43143;DHT22;28750;59.842;17.584;2023-04-24T14:57:37;4.80;99.90
43143;DHT22;28750;59.842;17.584;2023-04-24T15:00:07;4.90;99.90
43143;DHT22;28750;59.842;17.584;2023-04-24T15:05:57;4.90;99.90
43143;DHT22;28750;59.842;17.584;2023-04-24T15:11:28;4.90;99.90
43143;DHT22;28750;59.842;17.584;2023-04-24T15:17:17;4.90;1.00
43143;DHT22;28750;59.842;17.584;2023-04-24T15:19:44;4.90;98.30
43143;DHT22;28750;59.842;17.584;2023-04-24T15:22:11;5.10;99.90
43143;DHT22;28750;59.842;17.584;2023-04-24T15:24:38;5.00;99.90
43143;DHT22;28750;59.842;17.584;2023-04-24T15:27:09;5.00;77.30
43143;DHT22;28750;59.842;17.584;2023-04-24T15:29:36;5.00;99.90
43143;DHT22;28750;59.842;17.584;2023-04-24T15:32:03;5.00;99.90
43143;DHT22;28750;59.842;17.584;2023-04-24T15:34:30;4.70;1.00
43143;DHT22;28750;59.842;17.584;2023-04-24T15:36:58;4.70;99.90
43143;DHT22;28750;59.842;17.584;2023-04-24T15:39:26;4.50;99.90
43143;DHT22;28750;59.842;17.584;2023-04-24T15:41:53;4.70;99.90
43143;DHT22;28750;59.842;17.584;2023-04-24T15:44:21;4.70;99.90
43143;DHT22;28750;59.842;17.584;2023-04-24T15:46:48;4.60;99.90
43143;DHT22;28750;59.842;17.584;2023-04-24T15:49:17;4.50;99.90
43143;DHT22;28750;59.842;17.584;2023-04-24T15:51:44;4.60;99.90
43143;DHT22;28750;59.842;17.584;2023-04-24T15:54:11;4.50;95.40
43143;DHT22;28750;59.842;17.584;2023-04-24T15:56:37;4.40;56.90
43143;DHT22;28750;59.842;17.584;2023-04-24T15:59:05;4.50;99.90
43143;DHT22;28750;59.842;17.584;2023-04-24T16:01:32;4.40;99.90
43143;DHT22;28750;59.842;17.584;2023-04-24T16:03:59;4.50;99.90
43143;DHT22;28750;59.842;17.584;2023-04-24T16:06:26;4.50;99.90
43143;DHT22;28750;59.842;17.584;2023-04-24T16:08:53;4.50;60.70
43143;DHT22;28750;59.842;17.584;2023-04-24T16:11:20;4.40;99.90
43143;DHT22;28750;59.842;17.584;2023-04-24T16:13:47;4.30;50.80
43143;DHT22;28750;59.842;17.584;2023-04-24T16:16:14;4.30;99.90